createdAt,value
2018-01-04T00:00:02.890Z,98220
2018-01-04T00:02:32.858Z,98242
2018-01-04T00:05:02.158Z,98250
2018-01-04T00:07:31.276Z,98257
2018-01-04T00:10:00.426Z,98251
2018-01-04T00:12:29.685Z,98254
2018-01-04T00:14:58.813Z,98271
2018-01-04T00:17:27.940Z,98264
2018-01-04T00:19:57.160Z,98272
2018-01-04T00:22:26.282Z,98278
2018-01-04T00:24:56.228Z,98278
2018-01-04T00:27:25.573Z,98278
2018-01-04T00:29:54.726Z,98283
2018-01-04T00:32:23.921Z,98291
2018-01-04T00:34:53.111Z,98292
2018-01-04T00:37:22.243Z,98292
2018-01-04T00:39:52.278Z,98294
2018-01-04T00:42:21.456Z,98297
2018-01-04T00:44:51.048Z,98299
2018-01-04T00:47:20.256Z,98325
2018-01-04T00:49:49.467Z,98307
2018-01-04T00:52:19.353Z,98316
2018-01-04T00:54:48.473Z,98319
2018-01-04T00:57:17.632Z,98329
2018-01-04T00:59:46.721Z,98331
2018-01-04T01:02:16.623Z,98335
2018-01-04T01:04:45.758Z,98346
2018-01-04T01:07:15.623Z,98347
2018-01-04T01:09:44.713Z,98343
2018-01-04T01:12:13.833Z,98355
2018-01-04T01:14:42.946Z,98360
2018-01-04T01:17:12.061Z,98372
2018-01-04T01:19:41.385Z,98362
2018-01-04T01:22:10.522Z,98369
2018-01-04T01:24:39.615Z,98375
2018-01-04T01:27:08.750Z,98372
2018-01-04T01:29:38.604Z,98384
2018-01-04T01:32:07.706Z,98385
2018-01-04T01:34:37.386Z,98384
2018-01-04T01:37:06.512Z,98390
2018-01-04T01:39:35.601Z,98392
2018-01-04T01:42:04.795Z,98398
2018-01-04T01:44:33.903Z,98404
2018-01-04T01:47:03.002Z,98410
2018-01-04T01:49:32.924Z,98411
2018-01-04T01:52:02.794Z,98408
2018-01-04T01:54:31.891Z,98416
2018-01-04T01:57:01.035Z,98426
2018-01-04T01:59:30.270Z,98429
2018-01-04T02:02:00.197Z,98433
2018-01-04T02:04:30.002Z,98446
2018-01-04T02:06:59.102Z,98452
2018-01-04T02:09:28.258Z,98454
2018-01-04T02:11:58.482Z,98462
2018-01-04T02:14:27.594Z,98459
2018-01-04T02:16:56.790Z,98471
2018-01-04T02:19:43.994Z,98468
2018-01-04T02:22:30.904Z,98476
2018-01-04T02:25:19.595Z,98479
2018-01-04T02:28:07.820Z,98480
2018-01-04T02:30:54.907Z,98481
2018-01-04T02:36:55.120Z,98490
2018-01-04T02:39:41.980Z,98506
2018-01-04T02:45:53.244Z,98500
2018-01-04T02:48:22.492Z,98502
2018-01-04T02:50:51.605Z,98506
2018-01-04T02:53:20.710Z,98507
2018-01-04T02:55:51.003Z,98514
2018-01-04T02:58:20.074Z,98514
2018-01-04T03:00:49.169Z,98518
2018-01-04T03:03:18.304Z,98523
2018-01-04T03:05:47.423Z,98521
2018-01-04T03:08:16.513Z,98525
2018-01-04T03:10:46.399Z,98530
2018-01-04T03:13:16.266Z,98536
2018-01-04T03:15:45.387Z,98532
2018-01-04T03:18:15.333Z,98540
2018-01-04T03:20:44.429Z,98536
2018-01-04T03:23:19.251Z,98551
2018-01-04T03:25:53.814Z,98545
2018-01-04T03:28:28.600Z,98553
2018-01-04T03:31:04.080Z,98560
2018-01-04T03:33:38.741Z,98564
2018-01-04T03:36:13.351Z,98561
2018-01-04T03:38:47.870Z,98568
2018-01-04T03:41:23.192Z,98564
2018-01-04T03:43:58.763Z,98573
2018-01-04T03:46:33.360Z,98578
2018-01-04T03:49:08.030Z,98576
2018-01-04T03:51:42.668Z,98577
2018-01-04T03:54:17.233Z,98576
2018-01-04T03:56:52.598Z,98577
2018-01-04T03:59:27.399Z,98575
2018-01-04T04:02:01.924Z,98578
2018-01-04T04:04:36.977Z,98592
2018-01-04T04:07:11.691Z,98585
2018-01-04T04:09:40.832Z,98588
2018-01-04T04:12:09.925Z,98592
2018-01-04T04:14:39.018Z,98604
2018-01-04T04:17:08.154Z,98602
2018-01-04T04:19:37.288Z,98600
2018-01-04T04:22:06.393Z,98607
2018-01-04T04:24:36.258Z,98609
2018-01-04T04:27:05.373Z,98606
2018-01-04T04:29:34.463Z,98614
2018-01-04T04:32:04.450Z,98621
2018-01-04T04:34:33.556Z,98620
2018-01-04T04:37:02.656Z,98626
2018-01-04T04:39:32.523Z,98626
2018-01-04T04:42:01.625Z,98637
2018-01-04T04:44:31.537Z,98638
2018-01-04T04:47:00.714Z,98636
2018-01-04T04:49:29.834Z,98649
2018-01-04T04:51:59.069Z,98652
2018-01-04T04:54:28.584Z,98648
2018-01-04T04:56:57.720Z,98653
2018-01-04T04:59:27.639Z,98655
2018-01-04T05:01:57.005Z,98660
2018-01-04T05:04:26.217Z,98661
2018-01-04T05:06:55.389Z,98663
2018-01-04T05:09:25.413Z,98666
2018-01-04T05:11:54.610Z,98668
2018-01-04T05:14:24.523Z,98675
2018-01-04T05:16:54.252Z,98674
2018-01-04T05:19:24.423Z,98670
2018-01-04T05:21:53.590Z,98674
2018-01-04T05:24:23.559Z,98670
2018-01-04T05:26:52.694Z,98673
2018-01-04T05:29:22.682Z,98670
2018-01-04T05:31:53.093Z,98669
2018-01-04T05:34:22.240Z,98672
2018-01-04T05:36:51.598Z,98673
2018-01-04T05:39:20.824Z,98676
2018-01-04T05:41:49.954Z,98679
2018-01-04T05:44:19.062Z,98678
2018-01-04T05:46:48.595Z,98690
2018-01-04T05:49:18.510Z,98696
2018-01-04T05:51:47.642Z,98700
2018-01-04T05:54:17.571Z,98700
2018-01-04T05:56:47.553Z,98695
2018-01-04T05:59:16.668Z,98699
2018-01-04T06:01:45.967Z,98708
2018-01-04T06:04:15.118Z,98707
2018-01-04T06:06:45.004Z,98714
2018-01-04T06:09:14.160Z,98719
2018-01-04T06:11:44.090Z,98724
2018-01-04T06:14:14.936Z,98731
2018-01-04T06:16:45.277Z,98731
2018-01-04T06:19:14.364Z,98736
2018-01-04T06:21:43.442Z,98740
2018-01-04T06:24:12.589Z,98741
2018-01-04T06:26:41.704Z,98737
2018-01-04T06:29:11.636Z,98742
2018-01-04T06:31:41.579Z,98739
2018-01-04T06:34:10.661Z,98738
2018-01-04T06:36:39.767Z,98735
2018-01-04T06:39:09.687Z,98744
2018-01-04T06:41:38.821Z,98745
2018-01-04T06:44:08.710Z,98744
2018-01-04T06:46:37.906Z,98748
2018-01-04T06:49:07.010Z,98746
2018-01-04T06:51:36.160Z,98747
2018-01-04T06:54:06.175Z,98751
2018-01-04T06:56:35.304Z,98757
2018-01-04T06:59:04.418Z,98756
2018-01-04T07:01:34.817Z,98759
2018-01-04T07:04:03.967Z,98763
2018-01-04T07:06:33.899Z,98771
2018-01-04T07:09:03.060Z,98767
2018-01-04T07:11:32.191Z,98775
2018-01-04T07:14:01.401Z,98780
2018-01-04T07:16:31.120Z,98786
2018-01-04T07:19:00.225Z,98780
2018-01-04T07:21:29.373Z,98792
2018-01-04T07:23:59.286Z,98791
2018-01-04T07:26:28.433Z,98790
2018-01-04T07:28:57.658Z,98792
2018-01-04T07:31:27.043Z,98797
2018-01-04T07:33:56.261Z,98794
2018-01-04T07:36:25.405Z,98794
2018-01-04T07:38:54.672Z,98806
2018-01-04T07:41:24.560Z,98811
2018-01-04T07:43:53.859Z,98817
2018-01-04T07:46:23.962Z,98822
2018-01-04T07:48:53.074Z,98825
2018-01-04T07:51:22.252Z,98835
2018-01-04T07:53:52.187Z,98844
2018-01-04T07:56:21.314Z,98839
2018-01-04T07:58:50.426Z,98843
2018-01-04T08:01:19.780Z,98850
2018-01-04T08:03:48.915Z,98853
2018-01-04T08:06:18.019Z,98852
2018-01-04T08:08:47.666Z,98857
2018-01-04T08:11:16.788Z,98853
2018-01-04T08:13:45.915Z,98844
2018-01-04T08:16:15.042Z,98843
2018-01-04T08:18:44.138Z,98837
2018-01-04T08:21:13.301Z,98837
2018-01-04T08:23:44.248Z,98838
2018-01-04T08:26:14.211Z,98835
2018-01-04T08:28:43.327Z,98826
2018-01-04T08:31:13.960Z,98832
2018-01-04T08:33:43.053Z,98837
2018-01-04T08:36:12.174Z,98832
2018-01-04T08:38:41.683Z,98831
2018-01-04T08:41:10.779Z,98829
2018-01-04T08:43:40.638Z,98832
2018-01-04T08:46:09.779Z,98834
2018-01-04T08:48:38.878Z,98832
2018-01-04T08:51:07.986Z,98830
2018-01-04T08:53:37.919Z,98825
2018-01-04T08:56:07.012Z,98835
2018-01-04T08:58:36.098Z,98834
2018-01-04T09:01:05.250Z,98836
2018-01-04T09:03:34.405Z,98838
2018-01-04T09:06:04.285Z,98845
2018-01-04T09:08:33.535Z,98849
2018-01-04T09:11:03.391Z,98850
2018-01-04T09:13:32.491Z,98852
2018-01-04T09:16:01.630Z,98853
2018-01-04T09:18:30.742Z,98857
2018-01-04T09:20:59.834Z,98865
2018-01-04T09:23:28.979Z,98870
2018-01-04T09:25:58.260Z,98873
2018-01-04T09:28:27.487Z,98871
2018-01-04T09:30:56.713Z,98870
2018-01-04T09:33:27.516Z,98875
2018-01-04T09:35:58.812Z,98873
2018-01-04T09:38:27.978Z,98875
2018-01-04T09:40:57.275Z,98878
2018-01-04T09:43:27.966Z,98877
2018-01-04T09:45:57.100Z,98879
2018-01-04T09:48:27.014Z,98873
2018-01-04T09:50:56.698Z,98873
2018-01-04T09:53:25.964Z,98875
2018-01-04T09:55:55.119Z,98877
2018-01-04T09:58:24.403Z,98877
2018-01-04T10:00:53.595Z,98883
2018-01-04T10:03:23.602Z,98877
2018-01-04T10:05:53.385Z,98882
2018-01-04T10:08:23.300Z,98876
2018-01-04T10:10:52.454Z,98875
2018-01-04T10:13:22.156Z,98870
2018-01-04T10:15:51.326Z,98878
2018-01-04T10:18:20.424Z,98872
2018-01-04T10:20:49.675Z,98870
2018-01-04T10:23:19.533Z,98871
2018-01-04T10:25:48.771Z,98870
2018-01-04T10:28:18.195Z,98870
2018-01-04T10:30:47.377Z,98869
2018-01-04T10:33:16.966Z,98869
2018-01-04T10:35:47.675Z,98875
2018-01-04T10:38:16.783Z,98876
2018-01-04T10:40:46.001Z,98881
2018-01-04T10:43:15.157Z,98881
2018-01-04T10:45:44.339Z,98873
2018-01-04T10:48:13.651Z,98869
2018-01-04T10:50:43.674Z,98869
2018-01-04T10:53:12.820Z,98866
2018-01-04T10:55:42.047Z,98861
2018-01-04T10:58:11.220Z,98863
2018-01-04T11:00:40.398Z,98862
2018-01-04T11:03:09.589Z,98860
2018-01-04T11:05:38.863Z,98858
2018-01-04T11:08:08.761Z,98860
2018-01-04T11:10:37.930Z,98861
2018-01-04T11:13:07.481Z,98860
2018-01-04T11:15:36.569Z,98860
2018-01-04T11:18:05.674Z,98858
2018-01-04T11:20:34.853Z,98857
2018-01-04T11:23:04.804Z,98861
2018-01-04T11:25:33.944Z,98860
2018-01-04T11:28:03.494Z,98858
2018-01-04T11:30:33.745Z,98855
2018-01-04T11:33:03.372Z,98853
2018-01-04T11:35:32.962Z,98854
2018-01-04T11:38:02.929Z,98853
2018-01-04T11:40:32.160Z,98849
2018-01-04T11:43:01.342Z,98848
2018-01-04T11:45:30.457Z,98849
2018-01-04T11:47:59.696Z,98848
2018-01-04T11:50:29.248Z,98840
2018-01-04T11:52:58.411Z,98835
2018-01-04T11:55:28.353Z,98832
2018-01-04T11:57:57.585Z,98836
2018-01-04T12:00:27.107Z,98836
2018-01-04T12:02:56.449Z,98830
2018-01-04T12:05:26.458Z,98826
2018-01-04T12:07:55.582Z,98829
2018-01-04T12:10:24.973Z,98828
2018-01-04T12:12:54.340Z,98826
2018-01-04T12:15:23.779Z,98831
2018-01-04T12:17:52.970Z,98828
2018-01-04T12:20:22.335Z,98824
2018-01-04T12:22:51.577Z,98825
2018-01-04T12:25:21.473Z,98817
2018-01-04T12:27:50.614Z,98817
2018-01-04T12:30:19.762Z,98819
2018-01-04T12:32:48.882Z,98815
2018-01-04T12:35:18.133Z,98815
2018-01-04T12:37:47.230Z,98816
2018-01-04T12:40:16.427Z,98818
2018-01-04T12:42:46.374Z,98815
2018-01-04T12:45:15.461Z,98818
2018-01-04T12:50:26.613Z,98811
2018-01-04T12:52:55.861Z,98820
2018-01-04T12:55:25.951Z,98826
2018-01-04T12:57:55.484Z,98817
2018-01-04T13:00:24.661Z,98819
2018-01-04T13:02:53.821Z,98815
2018-01-04T13:05:23.110Z,98807
2018-01-04T13:07:52.293Z,98807
2018-01-04T13:10:21.448Z,98804
2018-01-04T13:12:52.954Z,98803
2018-01-04T13:15:22.173Z,98805
2018-01-04T13:17:51.364Z,98805
2018-01-04T13:20:20.631Z,98802
2018-01-04T13:22:50.489Z,98792
2018-01-04T13:25:19.763Z,98794
2018-01-04T13:27:49.471Z,98794
2018-01-04T13:30:18.733Z,98794
2018-01-04T13:32:47.853Z,98794
2018-01-04T13:35:17.129Z,98789
2018-01-04T13:37:46.349Z,98795
2018-01-04T13:40:16.274Z,98795
2018-01-04T13:42:45.993Z,98793
2018-01-04T13:45:15.135Z,98788
2018-01-04T13:47:44.518Z,98793
2018-01-04T13:50:13.677Z,98791
2018-01-04T13:52:42.778Z,98789
2018-01-04T13:55:11.929Z,98786
2018-01-04T13:57:41.098Z,98786
2018-01-04T14:00:10.219Z,98789
2018-01-04T14:02:39.416Z,98787
2018-01-04T14:05:08.647Z,98790
2018-01-04T14:07:37.762Z,98786
2018-01-04T14:10:07.674Z,98792
2018-01-04T14:12:36.839Z,98795
2018-01-04T14:15:07.450Z,98781
2018-01-04T14:17:36.703Z,98784
2018-01-04T14:20:07.423Z,98778
2018-01-04T14:22:37.340Z,98783
2018-01-04T14:25:06.756Z,98786
2018-01-04T14:27:36.082Z,98784
2018-01-04T14:30:05.338Z,98784
2018-01-04T14:32:35.249Z,98791
2018-01-04T14:35:06.214Z,98788
2018-01-04T14:37:36.105Z,98778
2018-01-04T14:40:05.294Z,98785
2018-01-04T14:42:34.531Z,98777
2018-01-04T14:45:03.657Z,98776
2018-01-04T14:47:32.798Z,98781
2018-01-04T14:50:03.510Z,98779
2018-01-04T14:52:33.340Z,98779
2018-01-04T14:55:02.481Z,98783
2018-01-04T14:57:31.993Z,98778
2018-01-04T15:00:01.875Z,98778
2018-01-04T15:02:31.098Z,98772
2018-01-04T15:05:01.276Z,98766
2018-01-04T15:07:30.513Z,98768
2018-01-04T15:10:01.350Z,98758
2018-01-04T15:12:30.511Z,98756
2018-01-04T15:14:59.730Z,98755
2018-01-04T15:17:29.696Z,98754
2018-01-04T15:19:58.900Z,98748
2018-01-04T15:22:28.062Z,98746
2018-01-04T15:24:58.257Z,98741
2018-01-04T15:27:27.526Z,98738
2018-01-04T15:29:57.541Z,98733
2018-01-04T15:32:26.741Z,98730
2018-01-04T15:34:56.502Z,98733
2018-01-04T15:37:26.436Z,98727
2018-01-04T15:39:56.382Z,98734
2018-01-04T15:42:25.574Z,98737
2018-01-04T15:44:54.762Z,98737
2018-01-04T15:47:23.898Z,98734
2018-01-04T15:49:53.596Z,98727
2018-01-04T15:52:23.750Z,98729
2018-01-04T15:54:53.665Z,98723
2018-01-04T15:57:25.642Z,98719
2018-01-04T15:59:55.674Z,98716
2018-01-04T16:02:25.622Z,98710
2018-01-04T16:04:55.055Z,98707
2018-01-04T16:07:24.264Z,98705
2018-01-04T16:09:53.416Z,98706
2018-01-04T16:12:22.713Z,98698
2018-01-04T16:14:51.867Z,98699
2018-01-04T16:17:21.840Z,98693
2018-01-04T16:19:51.076Z,98691
2018-01-04T16:22:21.030Z,98689
2018-01-04T16:24:50.978Z,98677
2018-01-04T16:27:20.999Z,98676
2018-01-04T16:29:50.120Z,98671
2018-01-04T16:32:19.220Z,98678
2018-01-04T16:34:49.196Z,98676
2018-01-04T16:37:18.937Z,98673
2018-01-04T16:39:48.066Z,98673
2018-01-04T16:42:18.782Z,98668
2018-01-04T16:44:47.920Z,98663
2018-01-04T16:47:17.805Z,98656
2018-01-04T16:49:47.899Z,98656
2018-01-04T16:52:17.153Z,98644
2018-01-04T16:54:47.262Z,98646
2018-01-04T16:57:16.413Z,98645
2018-01-04T16:59:45.505Z,98645
2018-01-04T17:02:14.971Z,98637
2018-01-04T17:04:45.056Z,98632
2018-01-04T17:07:14.845Z,98632
2018-01-04T17:09:44.043Z,98627
2018-01-04T17:12:13.215Z,98619
2018-01-04T17:14:42.336Z,98618
2018-01-04T17:17:11.441Z,98618
2018-01-04T17:19:40.702Z,98615
2018-01-04T17:22:09.864Z,98605
2018-01-04T17:24:38.982Z,98608
2018-01-04T17:27:08.995Z,98600
2018-01-04T17:29:38.243Z,98595
2018-01-04T17:32:08.665Z,98600
2018-01-04T17:34:39.547Z,98593
2018-01-04T17:37:10.227Z,98592
2018-01-04T17:39:39.689Z,98595
2018-01-04T17:42:08.935Z,98581
2018-01-04T17:44:38.104Z,98571
2018-01-04T17:47:08.277Z,98568
2018-01-04T17:49:38.551Z,98564
2018-01-04T17:52:08.527Z,98566
2018-01-04T17:54:37.841Z,98558
2018-01-04T17:57:07.846Z,98558
2018-01-04T17:59:40.913Z,98560
2018-01-04T18:02:11.711Z,98552
2018-01-04T18:04:42.075Z,98556
2018-01-04T18:07:14.140Z,98562
2018-01-04T18:09:44.218Z,98565
2018-01-04T18:12:13.371Z,98560
2018-01-04T18:14:42.755Z,98559
2018-01-04T18:17:11.903Z,98554
2018-01-04T18:19:41.109Z,98556
2018-01-04T18:22:10.282Z,98556
2018-01-04T18:24:39.441Z,98557
2018-01-04T18:27:08.564Z,98556
2018-01-04T18:29:37.713Z,98550
2018-01-04T18:32:06.855Z,98554
2018-01-04T18:34:36.784Z,98547
2018-01-04T18:37:07.625Z,98549
2018-01-04T18:39:36.733Z,98545
2018-01-04T18:42:05.838Z,98540
2018-01-04T18:44:35.014Z,98536
2018-01-04T18:47:04.142Z,98537
2018-01-04T18:49:33.301Z,98536
2018-01-04T18:52:02.461Z,98534
2018-01-04T18:54:32.363Z,98531
2018-01-04T18:57:01.528Z,98533
2018-01-04T18:59:31.117Z,98526
2018-01-04T19:02:00.397Z,98522
2018-01-04T19:04:29.604Z,98515
2018-01-04T19:06:59.466Z,98517
2018-01-04T19:09:28.618Z,98513
2018-01-04T19:11:58.611Z,98509
2018-01-04T19:14:28.100Z,98505
2018-01-04T19:16:57.471Z,98505
2018-01-04T19:19:27.010Z,98502
2018-01-04T19:21:58.307Z,98501
2018-01-04T19:24:27.757Z,98505
2018-01-04T19:26:57.024Z,98494
2018-01-04T19:29:26.489Z,98486
2018-01-04T19:31:55.955Z,98491
2018-01-04T19:34:26.786Z,98486
2018-01-04T19:36:56.256Z,98483
2018-01-04T19:39:25.469Z,98480
2018-01-04T19:41:54.650Z,98473
2018-01-04T19:44:24.343Z,98473
2018-01-04T19:46:53.555Z,98463
2018-01-04T19:49:23.486Z,98464
2018-01-04T19:51:53.556Z,98463
2018-01-04T19:54:22.796Z,98456
2018-01-04T19:56:51.981Z,98454
2018-01-04T19:59:21.171Z,98450
2018-01-04T20:01:50.294Z,98449
2018-01-04T20:04:19.427Z,98441
2018-01-04T20:06:48.625Z,98439
2018-01-04T20:09:17.749Z,98439
2018-01-04T20:11:46.935Z,98438
2018-01-04T20:14:16.115Z,98435
2018-01-04T20:16:45.463Z,98431
2018-01-04T20:19:14.731Z,98430
2018-01-04T20:21:44.081Z,98429
2018-01-04T20:24:13.244Z,98429
2018-01-04T20:26:42.464Z,98427
2018-01-04T20:29:11.974Z,98431
2018-01-04T20:31:41.162Z,98433
2018-01-04T20:34:11.192Z,98425
2018-01-04T20:36:41.803Z,98427
2018-01-04T20:39:11.694Z,98423
2018-01-04T20:41:41.929Z,98417
2018-01-04T20:44:11.081Z,98411
2018-01-04T20:46:40.191Z,98396
2018-01-04T20:49:09.321Z,98399
2018-01-04T20:51:38.878Z,98392
2018-01-04T20:54:08.003Z,98387
2018-01-04T20:56:37.137Z,98388
2018-01-04T20:59:06.309Z,98393
2018-01-04T21:01:35.415Z,98384
2018-01-04T21:04:04.751Z,98382
2018-01-04T21:06:35.154Z,98380
2018-01-04T21:09:04.440Z,98376
2018-01-04T21:11:33.568Z,98377
2018-01-04T21:14:02.965Z,98379
2018-01-04T21:16:32.267Z,98368
2018-01-04T21:19:01.690Z,98365
2018-01-04T21:21:31.149Z,98360
2018-01-04T21:24:00.496Z,98357
2018-01-04T21:26:29.741Z,98347
2018-01-04T21:29:00.221Z,98341
2018-01-04T21:31:29.525Z,98342
2018-01-04T21:33:58.738Z,98339
2018-01-04T21:36:28.383Z,98337
2018-01-04T21:38:57.703Z,98335
2018-01-04T21:41:27.050Z,98333
2018-01-04T21:43:56.351Z,98328
2018-01-04T21:46:25.514Z,98320
2018-01-04T21:48:54.714Z,98318
2018-01-04T21:51:24.046Z,98318
2018-01-04T21:53:53.376Z,98313
2018-01-04T21:56:23.260Z,98302
2018-01-04T21:58:52.691Z,98304
2018-01-04T22:01:21.969Z,98306
2018-01-04T22:03:51.687Z,98306
2018-01-04T22:06:20.884Z,98302
2018-01-04T22:08:50.055Z,98296
2018-01-04T22:11:19.989Z,98290
2018-01-04T22:13:49.216Z,98284
2018-01-04T22:16:20.084Z,98275
2018-01-04T22:18:50.062Z,98276
2018-01-04T22:21:20.248Z,98279
2018-01-04T22:23:49.400Z,98274
2018-01-04T22:26:18.528Z,98269
2018-01-04T22:28:48.261Z,98256
2018-01-04T22:31:17.361Z,98256
2018-01-04T22:33:46.542Z,98249
2018-01-04T22:36:15.721Z,98250
2018-01-04T22:38:44.907Z,98249
2018-01-04T22:41:14.951Z,98243
2018-01-04T22:43:44.906Z,98245
2018-01-04T22:46:14.069Z,98245
2018-01-04T22:48:43.200Z,98238
2018-01-04T22:51:13.320Z,98233
2018-01-04T22:53:43.210Z,98232
2018-01-04T22:56:12.380Z,98227
2018-01-04T22:58:41.588Z,98218
2018-01-04T23:01:10.677Z,98216
2018-01-04T23:03:39.856Z,98202
2018-01-04T23:06:09.127Z,98207
2018-01-04T23:08:38.240Z,98208
2018-01-04T23:11:07.369Z,98204
2018-01-04T23:13:36.517Z,98213
2018-01-04T23:16:05.644Z,98206
2018-01-04T23:18:35.597Z,98195
2018-01-04T23:21:06.401Z,98186
2018-01-04T23:23:35.510Z,98191
2018-01-04T23:26:04.653Z,98184
2018-01-04T23:28:34.566Z,98182
2018-01-04T23:31:03.708Z,98187
2018-01-04T23:33:32.859Z,98184
2018-01-04T23:36:02.797Z,98176
2018-01-04T23:38:31.936Z,98172
2018-01-04T23:41:01.047Z,98172
2018-01-04T23:43:31.160Z,98169
2018-01-04T23:46:00.322Z,98178
2018-01-04T23:48:29.687Z,98173
2018-01-04T23:50:58.949Z,98160
2018-01-04T23:53:28.249Z,98156
2018-01-04T23:55:57.538Z,98154
2018-01-04T23:58:26.824Z,98138
